createdAt,value
2022-08-05T00:02:40.599Z,100.00
2022-08-05T00:06:05.166Z,100.00
2022-08-05T00:08:56.907Z,100.00
2022-08-05T00:12:03.554Z,100.00
2022-08-05T00:15:54.063Z,100.00
2022-08-05T00:18:22.494Z,100.00
2022-08-05T00:21:26.299Z,100.00
2022-08-05T00:24:33.623Z,100.00
2022-08-05T00:27:39.524Z,100.00
2022-08-05T00:30:46.397Z,100.00
2022-08-05T00:34:56.731Z,100.00
2022-08-05T00:37:13.060Z,100.00
2022-08-05T00:40:09.509Z,100.00
2022-08-05T00:43:16.286Z,100.00
2022-08-05T00:46:36.936Z,100.00
2022-08-05T00:49:28.186Z,100.00
2022-08-05T00:52:35.130Z,100.00
2022-08-05T00:55:43.860Z,100.00
2022-08-05T00:58:49.721Z,100.00
2022-08-05T01:01:56.471Z,100.00
2022-08-05T01:05:02.292Z,100.00
2022-08-05T01:08:40.334Z,100.00
2022-08-05T01:11:37.657Z,100.00
2022-08-05T01:14:56.293Z,100.00
2022-08-05T01:18:10.777Z,100.00
2022-08-05T01:21:44.535Z,100.00
2022-08-05T01:25:13.590Z,100.00
2022-08-05T01:28:52.158Z,100.00
2022-08-05T01:32:04.310Z,100.00
2022-08-05T01:35:13.555Z,100.00
2022-08-05T01:38:19.742Z,100.00
2022-08-05T01:41:27.939Z,100.00
2022-08-05T01:44:35.224Z,100.00
2022-08-05T01:47:43.262Z,100.00
2022-08-05T01:50:53.944Z,100.00
2022-08-05T01:54:02.166Z,100.00
2022-08-05T01:58:13.083Z,100.00
2022-08-05T02:00:18.157Z,100.00
2022-08-05T02:03:52.080Z,100.00
2022-08-05T02:06:58.135Z,100.00
2022-08-05T02:09:56.973Z,100.00
2022-08-05T02:13:16.128Z,100.00
2022-08-05T02:16:27.642Z,100.00
2022-08-05T02:19:47.652Z,100.00
2022-08-05T02:22:51.313Z,100.00
2022-08-05T02:25:59.221Z,100.00
2022-08-05T02:29:07.491Z,100.00
2022-08-05T02:32:23.838Z,100.00
2022-08-05T02:35:27.948Z,100.00
2022-08-05T02:38:32.540Z,100.00
2022-08-05T02:41:57.648Z,100.00
2022-08-05T02:44:47.747Z,100.00
2022-08-05T02:48:11.486Z,100.00
2022-08-05T02:51:02.904Z,100.00
2022-08-05T02:54:08.540Z,100.00
2022-08-05T02:58:10.664Z,100.00
2022-08-05T03:00:22.053Z,100.00
2022-08-05T03:04:03.043Z,100.00
2022-08-05T03:06:55.283Z,100.00
2022-08-05T03:09:51.979Z,100.00
2022-08-05T03:16:06.716Z,100.00
2022-08-05T03:19:20.290Z,100.00
2022-08-05T03:22:32.196Z,100.00
2022-08-05T03:25:34.054Z,100.00
2022-08-05T03:28:37.525Z,100.00
2022-08-05T03:31:55.846Z,100.00
2022-08-05T03:34:51.228Z,100.00
2022-08-05T03:37:58.064Z,100.00
2022-08-05T03:41:08.356Z,100.00
2022-08-05T03:44:11.869Z,100.00
2022-08-05T03:47:17.968Z,100.00
2022-08-05T03:50:24.590Z,100.00
2022-08-05T03:55:53.613Z,100.00
2022-08-05T03:56:54.891Z,100.00
2022-08-05T04:00:10.694Z,100.00
2022-08-05T04:03:28.583Z,100.00
2022-08-05T04:06:26.375Z,100.00
2022-08-05T04:09:32.908Z,100.00
2022-08-05T04:15:52.877Z,100.00
2022-08-05T04:18:54.917Z,100.00
2022-08-05T04:22:08.602Z,100.00
2022-08-05T04:25:08.017Z,100.00
2022-08-05T04:28:17.235Z,100.00
2022-08-05T04:31:22.478Z,100.00
2022-08-05T04:34:32.829Z,100.00
2022-08-05T04:37:26.879Z,98.48
2022-08-05T04:40:23.431Z,97.26
2022-08-05T04:43:28.430Z,96.04
2022-08-05T04:46:33.730Z,95.63
2022-08-05T04:50:02.759Z,90.76
2022-08-05T04:52:46.049Z,90.59
2022-08-05T04:56:14.531Z,89.15
2022-08-05T04:58:59.528Z,88.00
2022-08-05T05:02:37.508Z,87.56
2022-08-05T05:05:17.022Z,86.66
2022-08-05T05:08:30.090Z,86.39
2022-08-05T05:11:41.446Z,84.62
2022-08-05T05:14:37.907Z,83.85
2022-08-05T05:17:56.300Z,83.62
2022-08-05T05:20:54.234Z,84.63
2022-08-05T05:24:03.668Z,82.69
2022-08-05T05:27:08.054Z,82.17
2022-08-05T05:30:28.667Z,83.20
2022-08-05T05:33:23.377Z,81.67
2022-08-05T05:36:30.194Z,81.36
2022-08-05T05:39:36.168Z,80.23
2022-08-05T05:42:42.541Z,79.60
2022-08-05T05:45:48.418Z,79.11
2022-08-05T05:48:50.197Z,78.27
2022-08-05T05:51:56.742Z,78.05
2022-08-05T05:55:07.344Z,77.17
2022-08-05T05:58:11.029Z,76.93
2022-08-05T06:01:12.682Z,76.24
2022-08-05T06:04:01.602Z,76.74
2022-08-05T06:06:53.087Z,78.17
2022-08-05T06:09:59.935Z,79.12
2022-08-05T06:12:56.500Z,79.22
2022-08-05T06:16:28.927Z,78.41
2022-08-05T06:19:10.139Z,79.93
2022-08-05T06:22:18.968Z,79.79
2022-08-05T06:26:12.835Z,79.15
2022-08-05T06:28:32.702Z,79.09
2022-08-05T06:31:38.665Z,77.74
2022-08-05T06:34:46.162Z,77.24
2022-08-05T06:37:57.418Z,77.33
2022-08-05T06:41:01.281Z,77.33
2022-08-05T06:44:08.539Z,77.83
2022-08-05T06:47:29.970Z,78.32
2022-08-05T06:50:23.069Z,78.32
2022-08-05T06:53:29.381Z,79.51
2022-08-05T06:56:36.907Z,80.07
2022-08-05T06:59:48.567Z,80.78
2022-08-05T07:02:57.357Z,79.52
2022-08-05T07:06:06.223Z,80.23
2022-08-05T07:09:03.733Z,78.70
2022-08-05T07:12:10.103Z,76.92
2022-08-05T07:16:00.832Z,76.53
2022-08-05T07:18:47.809Z,74.89
2022-08-05T07:22:00.546Z,75.64
2022-08-05T07:24:56.280Z,75.28
2022-08-05T07:28:09.613Z,74.38
2022-08-05T07:31:09.995Z,73.54
2022-08-05T07:34:21.160Z,72.41
2022-08-05T07:37:24.504Z,71.87
2022-08-05T07:40:33.377Z,72.27
2022-08-05T07:43:39.207Z,70.29
2022-08-05T07:46:49.214Z,70.21
2022-08-05T07:49:54.331Z,70.21
2022-08-05T07:53:01.282Z,71.52
2022-08-05T07:57:02.476Z,72.19
2022-08-05T07:59:15.470Z,74.56
2022-08-05T08:02:19.949Z,71.63
2022-08-05T08:05:26.340Z,69.02
2022-08-05T08:08:31.874Z,68.64
2022-08-05T08:11:47.193Z,65.77
2022-08-05T08:14:46.635Z,64.67
2022-08-05T08:17:52.911Z,63.62
2022-08-05T08:21:02.179Z,64.57
2022-08-05T08:24:08.504Z,64.17
2022-08-05T08:27:13.745Z,63.66
2022-08-05T08:30:29.919Z,66.06
2022-08-05T08:33:27.626Z,65.67
2022-08-05T08:36:49.027Z,64.88
2022-08-05T08:39:49.320Z,65.25
2022-08-05T08:42:52.333Z,65.34
2022-08-05T08:45:56.674Z,66.46
2022-08-05T08:50:03.866Z,66.84
2022-08-05T08:52:18.825Z,65.19
2022-08-05T08:56:02.810Z,66.75
2022-08-05T08:58:43.574Z,67.64
2022-08-05T09:01:31.198Z,65.86
2022-08-05T09:04:36.936Z,63.73
2022-08-05T09:07:57.040Z,63.56
2022-08-05T09:10:51.329Z,62.92
2022-08-05T09:14:09.915Z,63.76
2022-08-05T09:17:08.143Z,63.27
2022-08-05T09:20:36.413Z,63.26
2022-08-05T09:23:43.352Z,59.53
2022-08-05T09:26:36.750Z,59.53
2022-08-05T09:29:57.054Z,57.80
2022-08-05T09:33:04.887Z,62.00
2022-08-05T09:36:18.829Z,62.00
2022-08-05T09:39:45.156Z,61.55
2022-08-05T09:42:38.330Z,61.60
2022-08-05T09:46:06.791Z,60.19
2022-08-05T09:49:07.773Z,59.63
2022-08-05T09:52:07.398Z,58.80
2022-08-05T09:55:57.261Z,59.74
2022-08-05T09:58:32.386Z,59.62
2022-08-05T10:01:40.393Z,57.18
2022-08-05T10:04:55.170Z,56.81
2022-08-05T10:08:37.597Z,56.62
2022-08-05T10:11:31.347Z,57.77
2022-08-05T10:14:42.914Z,59.25
2022-08-05T10:17:56.538Z,57.99
2022-08-05T10:21:06.161Z,57.09
2022-08-05T10:24:12.518Z,56.90
2022-08-05T10:27:20.222Z,56.18
2022-08-05T10:31:20.957Z,56.15
2022-08-05T10:33:35.385Z,54.65
2022-08-05T10:36:41.730Z,54.14
2022-08-05T10:40:03.845Z,54.82
2022-08-05T10:42:56.621Z,53.64
2022-08-05T10:46:14.186Z,52.82
2022-08-05T10:49:27.441Z,52.87
2022-08-05T10:52:29.018Z,53.37
2022-08-05T10:56:04.621Z,53.07
2022-08-05T10:58:48.529Z,53.61
2022-08-05T11:02:05.148Z,55.29
2022-08-05T11:05:03.593Z,55.91
2022-08-05T11:08:37.338Z,55.48
2022-08-05T11:11:53.396Z,54.40
2022-08-05T11:15:01.233Z,55.16
2022-08-05T11:18:32.486Z,54.54
2022-08-05T11:21:49.368Z,54.56
2022-08-05T11:25:16.490Z,52.43
2022-08-05T11:28:00.676Z,52.30
2022-08-05T11:31:54.115Z,53.21
2022-08-05T11:34:26.208Z,52.55
2022-08-05T11:38:29.839Z,52.52
2022-08-05T11:41:58.005Z,53.60
2022-08-05T11:44:52.765Z,52.99
2022-08-05T11:47:48.638Z,52.51
2022-08-05T11:50:40.129Z,53.93
2022-08-05T11:53:45.623Z,54.70
2022-08-05T11:57:07.926Z,55.29
2022-08-05T12:00:13.954Z,59.25
2022-08-05T12:03:34.935Z,63.18
2022-08-05T12:06:41.610Z,64.08
2022-08-05T12:09:54.702Z,62.80
2022-08-05T12:13:01.018Z,64.75
2022-08-05T12:16:14.484Z,65.60
2022-08-05T12:20:27.657Z,66.71
2022-08-05T12:22:20.644Z,69.04
2022-08-05T12:25:28.551Z,70.83
2022-08-05T12:28:52.474Z,72.83
2022-08-05T12:32:04.525Z,75.92
2022-08-05T12:35:11.016Z,78.32
2022-08-05T12:38:18.135Z,80.17
2022-08-05T12:41:34.225Z,81.00
2022-08-05T12:44:34.280Z,82.80
2022-08-05T12:48:01.845Z,81.73
2022-08-05T12:50:53.745Z,83.06
2022-08-05T12:54:01.240Z,84.50
2022-08-05T12:57:15.559Z,85.01
2022-08-05T13:01:59.710Z,82.97
2022-08-05T13:03:27.090Z,81.67
2022-08-05T13:06:33.378Z,80.93
2022-08-05T13:09:38.150Z,80.21
2022-08-05T13:12:57.489Z,79.68
2022-08-05T13:15:51.125Z,77.36
2022-08-05T13:19:09.268Z,77.51
2022-08-05T13:22:14.959Z,76.35
2022-08-05T13:25:51.721Z,75.41
2022-08-05T13:28:33.648Z,73.83
2022-08-05T13:32:03.877Z,72.45
2022-08-05T13:34:41.206Z,72.90
2022-08-05T13:37:46.719Z,72.21
2022-08-05T13:40:54.639Z,71.67
2022-08-05T13:44:02.052Z,70.67
2022-08-05T13:47:09.130Z,70.49
2022-08-05T13:50:16.933Z,70.64
2022-08-05T13:53:21.891Z,70.29
2022-08-05T13:56:27.734Z,67.68
2022-08-05T13:59:35.789Z,67.65
2022-08-05T14:02:41.205Z,69.73
2022-08-05T14:06:04.909Z,68.52
2022-08-05T14:08:53.820Z,68.34
2022-08-05T14:12:04.200Z,73.61
2022-08-05T14:16:06.927Z,78.39
2022-08-05T14:18:15.162Z,83.56
2022-08-05T14:22:07.239Z,85.38
2022-08-05T14:24:29.253Z,84.30
2022-08-05T14:27:37.313Z,84.32
2022-08-05T14:30:46.338Z,86.46
2022-08-05T14:34:00.073Z,87.86
2022-08-05T14:36:59.283Z,89.40
2022-08-05T14:40:05.359Z,88.34
2022-08-05T14:43:11.280Z,87.40
2022-08-05T14:46:18.100Z,87.38
2022-08-05T14:49:24.614Z,86.37
2022-08-05T14:52:51.725Z,85.91
2022-08-05T14:55:40.078Z,84.04
2022-08-05T14:58:47.509Z,81.63
2022-08-05T15:01:54.031Z,83.14
2022-08-05T15:05:00.234Z,86.77
2022-08-05T15:08:12.274Z,89.38
2022-08-05T15:11:14.542Z,90.60
2022-08-05T15:14:35.034Z,92.52
2022-08-05T15:17:45.602Z,91.00
2022-08-05T15:20:36.220Z,89.65
2022-08-05T15:23:42.575Z,89.25
2022-08-05T15:26:48.691Z,87.51
2022-08-05T15:29:56.586Z,86.80
2022-08-05T15:33:02.431Z,87.85
2022-08-05T15:36:17.578Z,89.08
2022-08-05T15:41:01.991Z,88.63
2022-08-05T15:42:50.388Z,90.01
2022-08-05T15:45:38.902Z,90.78
2022-08-05T15:48:39.702Z,90.03
2022-08-05T15:52:09.909Z,89.50
2022-08-05T15:54:54.327Z,89.87
2022-08-05T15:58:03.094Z,90.87
2022-08-05T16:01:17.334Z,92.29
2022-08-05T16:04:18.100Z,92.63
2022-08-05T16:07:23.720Z,93.73
2022-08-05T16:10:29.830Z,94.81
2022-08-05T16:13:36.288Z,95.06
2022-08-05T16:16:43.004Z,96.64
2022-08-05T16:20:04.313Z,97.80
2022-08-05T16:22:59.596Z,99.40
2022-08-05T16:26:09.278Z,100.00
2022-08-05T16:29:09.036Z,100.00
2022-08-05T16:32:15.494Z,100.00
2022-08-05T16:35:27.949Z,100.00
2022-08-05T16:38:29.278Z,98.46
2022-08-05T16:42:14.114Z,97.01
2022-08-05T16:44:44.278Z,96.28
2022-08-05T16:47:53.641Z,96.39
2022-08-05T16:50:56.904Z,96.17
2022-08-05T16:54:17.499Z,96.29
2022-08-05T16:57:22.085Z,96.68
2022-08-05T17:00:25.928Z,96.77
2022-08-05T17:03:25.929Z,96.50
2022-08-05T17:06:32.596Z,96.68
2022-08-05T17:09:57.844Z,97.19
2022-08-05T17:12:50.625Z,97.46
2022-08-05T17:15:55.625Z,98.25
2022-08-05T17:18:59.312Z,98.52
2022-08-05T17:22:06.183Z,98.71
2022-08-05T17:25:33.974Z,98.94
2022-08-05T17:28:21.280Z,99.29
2022-08-05T17:31:24.795Z,99.76
2022-08-05T17:34:32.691Z,99.54
2022-08-05T17:37:45.417Z,99.95
2022-08-05T17:40:47.604Z,100.00
2022-08-05T17:43:53.211Z,99.88
2022-08-05T17:46:42.405Z,100.00
2022-08-05T17:49:52.162Z,100.00
2022-08-05T17:52:57.616Z,100.00
2022-08-05T17:56:05.099Z,100.00
2022-08-05T17:59:11.976Z,100.00
2022-08-05T18:02:19.088Z,100.00
2022-08-05T18:05:24.229Z,100.00
2022-08-05T18:08:31.525Z,100.00
2022-08-05T18:11:38.923Z,100.00
2022-08-05T18:14:45.482Z,100.00
2022-08-05T18:18:00.797Z,100.00
2022-08-05T18:21:00.339Z,100.00
2022-08-05T18:24:07.782Z,100.00
2022-08-05T18:27:18.620Z,100.00
2022-08-05T18:30:09.169Z,100.00
2022-08-05T18:33:15.743Z,100.00
2022-08-05T18:36:27.840Z,100.00
2022-08-05T18:40:18.882Z,100.00
2022-08-05T18:42:37.374Z,100.00
2022-08-05T18:45:43.566Z,100.00
2022-08-05T18:48:46.042Z,100.00
2022-08-05T18:52:11.748Z,100.00
2022-08-05T18:55:19.410Z,100.00
2022-08-05T18:58:28.624Z,100.00
2022-08-05T19:01:47.939Z,100.00
2022-08-05T19:05:01.639Z,100.00
2022-08-05T19:07:48.390Z,100.00
2022-08-05T19:10:49.177Z,100.00
2022-08-05T19:13:35.977Z,100.00
2022-08-05T19:16:33.050Z,100.00
2022-08-05T19:19:36.292Z,100.00
2022-08-05T19:22:43.017Z,100.00
2022-08-05T19:25:49.458Z,100.00
2022-08-05T19:28:56.259Z,100.00
2022-08-05T19:32:02.217Z,100.00
2022-08-05T19:35:12.164Z,100.00
2022-08-05T19:38:24.445Z,100.00
2022-08-05T19:41:22.035Z,100.00
2022-08-05T19:44:13.106Z,100.00
2022-08-05T19:47:03.649Z,100.00
2022-08-05T19:49:49.892Z,100.00
2022-08-05T19:52:43.602Z,100.00
2022-08-05T19:56:13.643Z,100.00
2022-08-05T19:58:54.107Z,100.00
2022-08-05T20:01:58.947Z,100.00
2022-08-05T20:05:09.636Z,100.00
2022-08-05T20:08:14.187Z,100.00
2022-08-05T20:11:20.048Z,100.00
2022-08-05T20:14:27.338Z,100.00
2022-08-05T20:17:32.588Z,100.00
2022-08-05T20:20:40.681Z,100.00
2022-08-05T20:23:51.652Z,100.00
2022-08-05T20:26:54.352Z,100.00
2022-08-05T20:30:02.264Z,100.00
2022-08-05T20:33:08.125Z,100.00
2022-08-05T20:36:14.298Z,100.00
2022-08-05T20:39:20.285Z,100.00
2022-08-05T20:42:29.354Z,100.00
2022-08-05T20:45:47.679Z,100.00
2022-08-05T20:48:42.809Z,100.00
2022-08-05T20:51:53.379Z,100.00
2022-08-05T20:55:54.294Z,100.00
2022-08-05T20:58:03.889Z,100.00
2022-08-05T21:01:09.673Z,100.00
2022-08-05T21:04:18.320Z,100.00
2022-08-05T21:07:23.996Z,100.00
2022-08-05T21:10:32.040Z,100.00
2022-08-05T21:13:55.904Z,100.00
2022-08-05T21:16:46.887Z,100.00
2022-08-05T21:19:52.931Z,100.00
2022-08-05T21:23:00.190Z,100.00
2022-08-05T21:26:12.476Z,100.00
2022-08-05T21:29:16.781Z,100.00
2022-08-05T21:32:22.289Z,100.00
2022-08-05T21:35:43.553Z,100.00
2022-08-05T21:38:40.122Z,100.00
2022-08-05T21:41:42.915Z,100.00
2022-08-05T21:44:50.146Z,100.00
2022-08-05T21:47:58.173Z,100.00
2022-08-05T21:51:04.606Z,100.00
2022-08-05T21:54:12.811Z,100.00
2022-08-05T21:57:33.731Z,100.00
2022-08-05T22:00:27.311Z,100.00
2022-08-05T22:03:52.167Z,100.00
2022-08-05T22:06:40.749Z,100.00
2022-08-05T22:09:46.539Z,100.00
2022-08-05T22:12:53.843Z,100.00
2022-08-05T22:16:04.890Z,100.00
2022-08-05T22:20:01.265Z,100.00
2022-08-05T22:22:13.093Z,100.00
2022-08-05T22:26:09.938Z,100.00
2022-08-05T22:28:44.570Z,100.00
2022-08-05T22:31:55.154Z,100.00
2022-08-05T22:34:58.851Z,100.00
2022-08-05T22:38:05.351Z,100.00
2022-08-05T22:41:09.510Z,100.00
2022-08-05T22:44:13.041Z,100.00
2022-08-05T22:47:12.335Z,100.00
2022-08-05T22:50:23.534Z,100.00
2022-08-05T22:53:25.525Z,100.00
2022-08-05T22:56:33.294Z,100.00
2022-08-05T22:59:44.066Z,100.00
2022-08-05T23:02:47.494Z,100.00
2022-08-05T23:05:46.636Z,100.00
2022-08-05T23:08:38.615Z,100.00
2022-08-05T23:11:46.627Z,100.00
2022-08-05T23:14:51.315Z,100.00
2022-08-05T23:18:00.737Z,100.00
2022-08-05T23:21:04.512Z,100.00
2022-08-05T23:24:11.419Z,100.00
2022-08-05T23:27:17.889Z,100.00
2022-08-05T23:30:18.962Z,100.00
2022-08-05T23:34:03.190Z,100.00
2022-08-05T23:36:40.197Z,100.00
2022-08-05T23:39:53.619Z,100.00
2022-08-05T23:42:47.470Z,100.00
2022-08-05T23:45:53.115Z,100.00
2022-08-05T23:48:59.943Z,100.00
2022-08-05T23:52:25.481Z,100.00
2022-08-05T23:55:31.202Z,100.00
2022-08-05T23:58:36.554Z,100.00
